Time;durP1;ratioP1;P1;durP2;ratioP2;P2;SDS_P1;SDS_P2;PMS_P1;PMS_P2;Temp;Humidity;BMP_temperature;BMP_pressure;BME280_temperature;BME280_humidity;BME280_pressure;Samples;Min_cycle;Max_cycle;Signal;HPM_P1;HPM_P2
2024/04/02 00:00:08;;;;;;;3.87;1.03;;;9.40;99.90;;;;;;5072818;28;20020;-48
2024/04/02 00:02:34;;;;;;;3.50;1.17;;;9.30;99.90;;;;;;5072844;28;20063;-49
2024/04/02 00:05:00;;;;;;;6.03;0.97;;;9.40;99.90;;;;;;5072817;28;20071;-48
2024/04/02 00:07:26;;;;;;;4.30;1.07;;;9.40;99.90;;;;;;5072536;28;20028;-47
2024/04/02 00:09:51;;;;;;;4.57;0.87;;;9.30;99.90;;;;;;5072559;28;20028;-48
2024/04/02 00:12:17;;;;;;;2.03;0.77;;;9.30;99.90;;;;;;5072627;28;20029;-51
2024/04/02 00:14:42;;;;;;;2.93;0.87;;;9.30;99.90;;;;;;5072785;28;20056;-53
2024/04/02 00:17:08;;;;;;;1.00;0.70;;;9.30;99.90;;;;;;5072392;28;20374;-53
2024/04/02 00:19:33;;;;;;;1.87;0.80;;;9.30;99.90;;;;;;5072466;28;20032;-51
2024/04/02 00:21:59;;;;;;;3.60;0.60;;;9.20;99.90;;;;;;5071806;28;20450;-52
2024/04/02 00:24:25;;;;;;;2.13;0.60;;;9.20;99.90;;;;;;5072378;28;20017;-52
2024/04/02 00:26:50;;;;;;;2.80;0.90;;;9.20;99.90;;;;;;5072215;28;20103;-54
2024/04/02 00:29:17;;;;;;;2.03;0.73;;;9.30;99.90;;;;;;5072407;28;20025;-54
2024/04/02 00:31:43;;;;;;;3.13;0.80;;;9.30;99.90;;;;;;5072236;28;20454;-53
2024/04/02 00:34:09;;;;;;;3.33;1.00;;;9.30;99.90;;;;;;5072274;28;20115;-50
2024/04/02 00:36:34;;;;;;;2.87;0.93;;;9.20;99.90;;;;;;5072473;28;20035;-51
2024/04/02 00:39:00;;;;;;;2.10;0.90;;;9.30;99.90;;;;;;5072254;28;20032;-50
2024/04/02 00:41:25;;;;;;;1.20;0.70;;;9.30;99.90;;;;;;5054350;28;20032;-50
2024/04/02 00:43:51;;;;;;;2.10;0.90;;;9.30;99.90;;;;;;5072119;28;20119;-52
2024/04/02 00:46:17;;;;;;;2.83;0.93;;;9.30;99.90;;;;;;5071888;28;20023;-49
2024/04/02 00:48:42;;;;;;;2.73;0.80;;;9.20;99.90;;;;;;5072022;28;20481;-49
2024/04/02 00:51:08;;;;;;;4.83;0.80;;;9.20;99.90;;;;;;5071969;28;20039;-51
2024/04/02 00:53:34;;;;;;;3.13;0.80;;;9.10;99.90;;;;;;5072096;28;20220;-53
2024/04/02 00:56:01;;;;;;;4.07;0.73;;;9.10;99.90;;;;;;5071855;28;20078;-51
2024/04/02 00:58:27;;;;;;;3.20;0.60;;;9.00;99.90;;;;;;5071987;28;20115;-52
2024/04/02 01:00:55;;;;;;;1.77;0.70;;;9.10;99.90;;;;;;5071819;28;20115;-51
2024/04/02 01:03:21;;;;;;;3.22;0.70;;;9.10;99.90;;;;;;5071923;28;20033;-51
2024/04/02 01:05:47;;;;;;;3.00;0.90;;;9.00;99.90;;;;;;5071608;28;20392;-50
2024/04/02 01:08:13;;;;;;;2.00;0.80;;;9.10;99.90;;;;;;5071851;28;20025;-53
2024/04/02 01:10:39;;;;;;;3.97;0.77;;;9.00;99.90;;;;;;5071725;28;20028;-53
2024/04/02 01:13:05;;;;;;;2.43;0.90;;;8.90;99.90;;;;;;5071967;28;20068;-51
2024/04/02 01:15:31;;;;;;;4.07;0.87;;;8.90;99.90;;;;;;5053816;28;20497;-51
2024/04/02 01:17:56;;;;;;;2.43;0.83;;;8.80;99.90;;;;;;5071871;28;20513;-50
2024/04/02 01:20:22;;;;;;;3.60;0.77;;;8.70;99.90;;;;;;5071601;28;20473;-53
2024/04/02 01:22:49;;;;;;;3.77;0.90;;;8.70;99.90;;;;;;5071715;28;20036;-53
2024/04/02 01:25:22;;;;;;;2.63;0.90;;;8.70;99.90;;;;;;5071516;28;20028;-52
2024/04/02 01:27:47;;;;;;;3.97;1.20;;;8.70;99.90;;;;;;5071678;28;20029;-53
2024/04/02 01:30:13;;;;;;;3.67;1.00;;;8.70;99.90;;;;;;5071652;28;20039;-52
2024/04/02 01:32:39;;;;;;;1.83;0.90;;;8.70;99.90;;;;;;5071564;28;20029;-54
2024/04/02 01:35:04;;;;;;;4.40;0.93;;;8.80;99.90;;;;;;5075530;28;20020;-51
2024/04/02 01:37:30;;;;;;;5.33;1.17;;;8.70;99.90;;;;;;5075733;28;20485;-49
2024/04/02 01:39:55;;;;;;;2.70;0.90;;;8.70;99.90;;;;;;5075473;28;20035;-53
2024/04/02 01:42:22;;;;;;;2.80;0.97;;;8.60;99.90;;;;;;5075558;28;20086;-52
2024/04/02 01:44:47;;;;;;;3.40;1.30;;;8.70;99.90;;;;;;5075364;28;20064;-51
2024/04/02 01:47:13;;;;;;;5.63;1.03;;;8.70;99.90;;;;;;5075358;28;20064;-48
2024/04/02 01:49:38;;;;;;;3.80;1.10;;;8.70;99.90;;;;;;5075183;28;20024;-51
2024/04/02 01:52:04;;;;;;;2.83;0.93;;;8.60;99.90;;;;;;5075343;28;20025;-49
2024/04/02 01:54:30;;;;;;;5.57;1.10;;;8.70;99.90;;;;;;5075343;28;20036;-49
2024/04/02 01:56:56;;;;;;;5.57;1.20;;;8.70;99.90;;;;;;5074935;28;20488;-52
2024/04/02 01:59:21;;;;;;;3.07;1.07;;;8.70;99.90;;;;;;5075164;28;20083;-52
2024/04/02 02:01:47;;;;;;;2.73;1.00;;;8.70;99.90;;;;;;5075065;28;20029;-53
2024/04/02 02:04:12;;;;;;;3.20;0.73;;;8.70;99.90;;;;;;5074916;28;20025;-52
2024/04/02 02:06:38;;;;;;;2.93;0.90;;;8.80;99.90;;;;;;5074911;28;20062;-52
2024/04/02 02:09:04;;;;;;;5.10;1.13;;;8.80;99.90;;;;;;5074963;28;20065;-48
2024/04/02 02:11:29;;;;;;;3.73;1.10;;;8.80;99.90;;;;;;5074909;28;20016;-47
2024/04/02 02:13:56;;;;;;;3.23;1.10;;;8.80;99.90;;;;;;5056918;28;20047;-50
2024/04/02 02:16:22;;;;;;;5.70;1.30;;;8.80;99.90;;;;;;5074751;28;20077;-53
2024/04/02 02:18:48;;;;;;;5.63;1.20;;;8.90;99.90;;;;;;5074746;28;20115;-53
2024/04/02 02:21:13;;;;;;;2.10;0.90;;;8.90;99.90;;;;;;5056844;28;20419;-52
2024/04/02 02:23:40;;;;;;;4.67;1.10;;;9.00;99.90;;;;;;5074679;28;20028;-52
2024/04/02 02:26:06;;;;;;;3.27;1.10;;;9.00;99.90;;;;;;5074552;28;20429;-52
2024/04/02 02:28:31;;;;;;;2.57;0.90;;;8.90;99.90;;;;;;5074685;28;20024;-52
2024/04/02 02:30:57;;;;;;;2.40;1.00;;;9.00;99.90;;;;;;5074663;28;20032;-49
2024/04/02 02:33:22;;;;;;;5.27;1.37;;;9.00;99.90;;;;;;5074578;28;20032;-49
2024/04/02 02:35:53;;;;;;;3.70;0.90;;;9.00;99.90;;;;;;5074346;28;20052;-52
2024/04/02 02:38:19;;;;;;;2.83;1.10;;;8.90;99.90;;;;;;5074480;28;20070;-54
2024/04/02 02:40:44;;;;;;;3.80;1.03;;;8.90;99.90;;;;;;5074478;28;20041;-50
2024/04/02 02:43:10;;;;;;;3.37;0.87;;;8.90;99.90;;;;;;5074379;28;20028;-51
2024/04/02 02:45:35;;;;;;;4.13;1.23;;;8.90;99.90;;;;;;5073645;28;20097;-54
2024/04/02 02:48:01;;;;;;;7.03;1.33;;;9.00;99.90;;;;;;5074288;28;20107;-50
2024/04/02 02:50:26;;;;;;;5.43;1.30;;;9.10;99.90;;;;;;5056429;28;20373;-54
2024/04/02 02:52:52;;;;;;;4.90;1.30;;;9.20;99.90;;;;;;5074389;28;20024;-52
2024/04/02 02:55:19;;;;;;;4.40;1.27;;;9.10;99.90;;;;;;5073995;28;20036;-52
2024/04/02 02:57:45;;;;;;;2.80;1.03;;;9.20;99.90;;;;;;5074113;28;20067;-53
2024/04/02 03:00:11;;;;;;;4.00;1.37;;;9.10;99.90;;;;;;5073967;28;20099;-54
2024/04/02 03:02:37;;;;;;;3.70;1.13;;;9.20;99.90;;;;;;5074040;28;20050;-52
2024/04/02 03:05:03;;;;;;;4.43;1.57;;;9.20;99.90;;;;;;5073980;28;20040;-53
2024/04/02 03:07:29;;;;;;;5.70;1.63;;;9.20;99.90;;;;;;5073624;28;20078;-50
2024/04/02 03:09:54;;;;;;;4.97;1.47;;;9.20;99.90;;;;;;5073891;28;20032;-51
2024/04/02 03:12:20;;;;;;;4.27;1.23;;;9.20;99.90;;;;;;5074387;28;20483;-53
2024/04/02 03:14:46;;;;;;;6.03;1.30;;;9.20;99.90;;;;;;5073850;28;20028;-54
2024/04/02 03:17:12;;;;;;;2.47;1.30;;;9.10;99.90;;;;;;5073783;28;20024;-53
2024/04/02 03:19:37;;;;;;;2.90;1.07;;;9.10;99.90;;;;;;5073719;28;20028;-50
2024/04/02 03:22:03;;;;;;;3.23;1.10;;;9.10;99.90;;;;;;5073669;28;20106;-53
2024/04/02 03:24:28;;;;;;;5.23;0.93;;;9.00;99.90;;;;;;5073608;28;20035;-54
2024/04/02 03:26:54;;;;;;;4.53;1.00;;;9.00;99.90;;;;;;5073349;28;20025;-54
2024/04/02 03:29:20;;;;;;;3.63;1.00;;;9.00;99.90;;;;;;5073554;28;20032;-53
2024/04/02 03:31:47;;;;;;;4.03;1.10;;;9.00;99.90;;;;;;5073394;28;20094;-53
2024/04/02 03:34:12;;;;;;;3.43;1.30;;;8.90;99.90;;;;;;5055590;28;20043;-52
2024/04/02 03:36:38;;;;;;;2.83;0.83;;;8.90;99.90;;;;;;5055297;28;20123;-53
2024/04/02 03:39:04;;;;;;;3.90;0.90;;;8.80;99.90;;;;;;5073444;28;20029;-51
2024/04/02 03:41:29;;;;;;;4.40;1.10;;;8.80;99.90;;;;;;5073464;28;20058;-49
2024/04/02 03:43:55;;;;;;;4.83;0.93;;;8.90;99.90;;;;;;5073170;28;20083;-52
2024/04/02 03:46:21;;;;;;;5.30;1.00;;;8.80;99.90;;;;;;5072902;28;20116;-51
2024/04/02 03:48:48;;;;;;;3.77;0.70;;;8.70;99.90;;;;;;5073144;28;20059;-52
2024/04/02 03:51:15;;;;;;;3.93;1.10;;;8.70;99.90;;;;;;5073182;28;20029;-54
2024/04/02 03:53:41;;;;;;;3.07;0.93;;;8.80;99.90;;;;;;5073030;28;20450;-53
2024/04/02 03:56:07;;;;;;;4.73;1.13;;;8.80;99.90;;;;;;5072394;28;20082;-52
2024/04/02 03:58:32;;;;;;;2.63;0.90;;;8.80;99.90;;;;;;5072374;28;20538;-53
2024/04/02 04:00:58;;;;;;;2.47;0.80;;;8.80;99.90;;;;;;5072746;28;20508;-52
2024/04/02 04:03:25;;;;;;;3.27;1.07;;;8.80;99.90;;;;;;5072675;28;20124;-51
2024/04/02 04:06:05;;;;;;;1.43;0.77;;;8.70;99.90;;;;;;5072471;28;20086;-53
2024/04/02 04:08:31;;;;;;;;;;;8.70;99.90;;;;;;5073440;28;20025;-53
2024/04/02 04:10:57;;;;;;;3.43;0.80;;;8.70;99.90;;;;;;5072614;28;19909;-51
2024/04/02 04:13:23;;;;;;;3.53;0.97;;;8.70;99.90;;;;;;5072600;28;20035;-51
2024/04/02 04:15:56;;;;;;;3.80;0.93;;;8.70;99.90;;;;;;5072460;28;20488;-53
2024/04/02 04:18:30;;;;;;;4.90;0.90;;;8.70;99.90;;;;;;5069635;28;20646;-54
2024/04/02 04:20:59;;;;;;;3.77;0.93;;;8.70;99.90;;;;;;5069105;28;20103;-54
2024/04/02 04:23:26;;;;;;;2.13;0.80;;;8.80;99.90;;;;;;5069221;28;20111;-54
2024/04/02 04:25:58;;;;;;;5.23;1.30;;;8.90;99.90;;;;;;5068857;28;20034;-53
2024/04/02 04:28:25;;;;;;;4.83;0.93;;;8.90;99.90;;;;;;5069087;28;20025;-52
2024/04/02 04:31:02;;;;;;;3.03;0.90;;;8.90;99.90;;;;;;5068957;28;20041;-54
2024/04/02 04:33:28;;;;;;;3.13;0.97;;;8.90;99.90;;;;;;5069056;28;20029;-51
2024/04/02 04:35:55;;;;;;;3.97;0.83;;;8.90;99.90;;;;;;5068683;28;20108;-52
2024/04/02 04:38:21;;;;;;;3.33;0.93;;;8.80;99.90;;;;;;5069004;28;20032;-53
2024/04/02 04:40:48;;;;;;;3.13;0.90;;;8.80;99.90;;;;;;5068744;28;20029;-50
2024/04/02 04:43:18;;;;;;;4.73;1.20;;;8.80;99.90;;;;;;5068820;28;20079;-51
2024/04/02 04:45:54;;;;;;;3.17;1.17;;;8.90;99.90;;;;;;5068495;28;20362;-51
2024/04/02 04:48:20;;;;;;;7.60;1.57;;;8.90;99.90;;;;;;5068709;28;20021;-54
2024/04/02 04:50:58;;;;;;;3.17;1.10;;;9.00;99.90;;;;;;5068546;28;20029;-50
2024/04/02 04:53:23;;;;;;;4.37;1.40;;;9.00;99.90;;;;;;5068590;28;20056;-49
2024/04/02 04:55:49;;;;;;;5.10;1.10;;;8.90;99.90;;;;;;5068367;28;20060;-51
2024/04/02 04:58:15;;;;;;;2.80;1.10;;;9.00;99.90;;;;;;5068439;28;20203;-50
2024/04/02 05:00:40;;;;;;;4.93;1.20;;;9.00;99.90;;;;;;5068443;28;20446;-53
2024/04/02 05:03:06;;;;;;;4.43;1.40;;;9.00;99.90;;;;;;5068296;28;20485;-54
2024/04/02 05:05:33;;;;;;;5.07;1.20;;;9.00;99.90;;;;;;5068096;28;20039;-53
2024/04/02 05:08:16;;;;;;;4.90;1.10;;;9.00;99.90;;;;;;5068452;28;20090;-54
2024/04/02 05:10:42;;;;;;;5.20;1.30;;;9.10;99.90;;;;;;5068145;28;20056;-54
2024/04/02 05:13:08;;;;;;;3.93;1.27;;;9.20;99.90;;;;;;5068281;28;20033;-54
2024/04/02 05:15:34;;;;;;;5.70;1.10;;;9.10;99.90;;;;;;5067949;28;20072;-53
2024/04/02 05:18:00;;;;;;;3.50;1.17;;;9.10;99.90;;;;;;5067824;28;20071;-51
2024/04/02 05:20:25;;;;;;;4.97;1.10;;;9.10;99.90;;;;;;5067897;28;20017;-54
2024/04/02 05:22:53;;;;;;;4.53;1.43;;;9.00;99.90;;;;;;5067853;28;20378;-53
2024/04/02 05:25:19;;;;;;;6.60;1.47;;;8.90;99.90;;;;;;5067779;28;20028;-53
2024/04/02 05:27:44;;;;;;;8.07;1.33;;;9.10;99.90;;;;;;5066524;28;20078;-54
2024/04/02 05:30:12;;;;;;;5.20;1.63;;;9.00;99.90;;;;;;5054287;28;20119;-53
2024/04/02 05:32:38;;;;;;;4.77;1.73;;;9.00;99.90;;;;;;5054654;28;20049;-52
2024/04/02 05:35:04;;;;;;;5.67;1.70;;;9.00;99.90;;;;;;5054472;28;20035;-51
2024/04/02 05:37:29;;;;;;;5.23;1.90;;;9.00;99.90;;;;;;5054195;28;20033;-54
2024/04/02 05:39:55;;;;;;;5.37;2.00;;;9.10;99.90;;;;;;5054314;28;20071;-54
2024/04/02 05:42:21;;;;;;;5.37;1.80;;;9.10;99.90;;;;;;5054332;28;20588;-51
2024/04/02 05:44:47;;;;;;;6.83;1.97;;;9.10;99.90;;;;;;5054307;28;20029;-49
2024/04/02 05:47:13;;;;;;;6.63;2.20;;;9.20;99.90;;;;;;5054028;28;20125;-53
2024/04/02 05:49:38;;;;;;;9.57;2.20;;;9.20;99.90;;;;;;5054086;28;20163;-52
2024/04/02 05:52:04;;;;;;;7.90;2.57;;;9.30;99.90;;;;;;5054158;28;20025;-50
2024/04/02 05:54:30;;;;;;;8.73;2.47;;;9.40;99.90;;;;;;5054185;28;20108;-49
2024/04/02 05:56:56;;;;;;;6.10;2.10;;;9.50;99.90;;;;;;5053938;28;20120;-53
2024/04/02 05:59:21;;;;;;;7.13;2.43;;;9.60;99.90;;;;;;5054112;28;20385;-53
2024/04/02 06:01:47;;;;;;;6.30;1.70;;;9.70;99.90;;;;;;5053959;28;20025;-53
2024/04/02 06:04:13;;;;;;;5.87;1.87;;;9.80;99.90;;;;;;5053962;28;20037;-53
2024/04/02 06:06:39;;;;;;;4.57;1.40;;;9.80;99.90;;;;;;5053669;28;20060;-53
2024/04/02 06:09:05;;;;;;;3.70;1.30;;;9.90;99.90;;;;;;5053794;28;20029;-52
2024/04/02 06:11:30;;;;;;;9.43;1.70;;;9.90;99.90;;;;;;5053741;28;20059;-52
2024/04/02 06:13:56;;;;;;;10.10;1.67;;;10.00;99.90;;;;;;5053830;28;20033;-53
2024/04/02 06:16:22;;;;;;;8.53;1.70;;;10.10;99.90;;;;;;5053303;28;20055;-50
2024/04/02 06:18:48;;;;;;;7.50;1.30;;;10.10;99.90;;;;;;5053703;28;20090;-53
2024/04/02 06:21:13;;;;;;;7.13;1.50;;;10.10;99.90;;;;;;5053633;28;20470;-53
2024/04/02 06:23:39;;;;;;;8.47;1.50;;;10.10;99.90;;;;;;5053609;28;20029;-52
2024/04/02 06:26:05;;;;;;;4.57;1.30;;;10.20;99.90;;;;;;5053408;28;20021;-51
2024/04/02 06:28:30;;;;;;;9.30;1.47;;;10.20;99.90;;;;;;5053641;28;20353;-51
2024/04/02 06:30:56;;;;;;;8.77;1.87;;;10.20;99.90;;;;;;5053397;28;20397;-53
2024/04/02 06:33:22;;;;;;;9.17;1.63;;;10.30;99.90;;;;;;5053360;28;20024;-53
2024/04/02 06:35:47;;;;;;;8.17;1.50;;;10.30;99.90;;;;;;5053099;28;20029;-52
2024/04/02 06:38:13;;;;;;;11.23;2.00;;;10.30;99.90;;;;;;5053245;28;20501;-51
2024/04/02 06:40:38;;;;;;;7.63;1.23;;;10.30;99.90;;;;;;5052324;28;20129;-53
2024/04/02 06:43:04;;;;;;;9.93;1.90;;;10.40;99.90;;;;;;5053314;28;20071;-53
2024/04/02 06:45:29;;;;;;;10.97;2.47;;;10.40;99.90;;;;;;5053046;28;20470;-54
2024/04/02 06:47:55;;;;;;;9.60;1.77;;;10.40;99.90;;;;;;5053116;28;20059;-53
2024/04/02 06:50:21;;;;;;;7.57;1.50;;;10.40;99.90;;;;;;5052929;28;20389;-50
2024/04/02 06:52:47;;;;;;;5.77;1.20;;;10.40;99.90;;;;;;5053088;28;20036;-50
2024/04/02 06:55:12;;;;;;;6.90;1.60;;;10.40;99.90;;;;;;5052956;28;20520;-52
2024/04/02 06:57:38;;;;;;;7.00;1.53;;;10.50;99.90;;;;;;5052676;28;20033;-54
2024/04/02 07:00:06;;;;;;;10.83;1.50;;;10.50;99.90;;;;;;5052702;28;20381;-52
2024/04/02 07:02:32;;;;;;;7.50;1.50;;;10.50;99.90;;;;;;5052865;28;20531;-50
2024/04/02 07:04:58;;;;;;;10.33;1.50;;;10.60;99.90;;;;;;5052822;28;20063;-52
2024/04/02 07:07:24;;;;;;;6.03;1.30;;;10.60;99.90;;;;;;5052778;28;20029;-50
2024/04/02 07:09:50;;;;;;;8.17;1.60;;;10.70;99.90;;;;;;5052677;28;20549;-52
2024/04/02 07:12:15;;;;;;;12.80;1.70;;;10.80;99.90;;;;;;5052651;28;20167;-53
2024/04/02 07:14:41;;;;;;;10.53;1.80;;;10.80;99.90;;;;;;5052535;28;20043;-52
2024/04/02 07:17:07;;;;;;;7.27;2.07;;;10.80;99.90;;;;;;5050934;28;20041;-53
2024/04/02 07:19:32;;;;;;;6.87;1.70;;;10.90;99.90;;;;;;5052454;28;20472;-50
2024/04/02 07:21:58;;;;;;;9.23;1.53;;;10.90;99.90;;;;;;5052430;28;20028;-52
2024/04/02 07:24:23;;;;;;;8.03;1.63;;;10.90;99.90;;;;;;5052472;28;20535;-53
2024/04/02 07:26:49;;;;;;;7.97;1.40;;;11.00;99.90;;;;;;5052055;28;20036;-52
2024/04/02 07:29:14;;;;;;;9.97;1.60;;;11.00;99.90;;;;;;5052187;28;20028;-52
2024/04/02 07:31:40;;;;;;;4.90;1.10;;;11.00;99.90;;;;;;5052303;28;20492;-53
2024/04/02 07:34:06;;;;;;;6.93;2.10;;;11.00;99.90;;;;;;5052346;28;20037;-53
2024/04/02 07:36:31;;;;;;;8.10;1.87;;;11.00;99.90;;;;;;5051980;28;20033;-53
2024/04/02 07:38:57;;;;;;;7.10;1.33;;;11.00;99.90;;;;;;5052242;28;20040;-53
2024/04/02 07:41:22;;;;;;;10.57;1.30;;;11.00;99.90;;;;;;5052126;28;20068;-52
2024/04/02 07:43:48;;;;;;;5.80;1.60;;;11.00;99.90;;;;;;5052094;28;20032;-48
2024/04/02 07:46:13;;;;;;;9.10;1.70;;;11.00;99.90;;;;;;5051863;28;20029;-53
2024/04/02 07:48:39;;;;;;;12.90;1.93;;;10.90;99.90;;;;;;5052271;28;20029;-53
2024/04/02 07:51:09;;;;;;;10.60;2.00;;;10.90;99.90;;;;;;5051839;28;20466;-51
2024/04/02 07:53:35;;;;;;;8.10;1.93;;;10.90;99.90;;;;;;5051972;28;20044;-52
2024/04/02 07:56:01;;;;;;;9.00;1.50;;;10.90;99.90;;;;;;5051772;28;20029;-53
2024/04/02 07:58:27;;;;;;;6.73;1.80;;;10.90;99.90;;;;;;5051797;28;20486;-51
2024/04/02 08:00:52;;;;;;;8.10;1.60;;;10.90;99.90;;;;;;5051792;28;20126;-48
2024/04/02 08:03:18;;;;;;;8.17;1.30;;;10.90;99.90;;;;;;5051938;28;20048;-51
2024/04/02 08:05:44;;;;;;;8.80;1.70;;;10.90;99.90;;;;;;5051948;28;20071;-49
2024/04/02 08:08:09;;;;;;;9.50;1.57;;;10.90;99.90;;;;;;5050633;28;20036;-50
2024/04/02 08:10:35;;;;;;;11.20;2.00;;;11.00;99.90;;;;;;5051724;28;20370;-49
2024/04/02 08:13:01;;;;;;;8.50;1.23;;;10.90;99.90;;;;;;5051706;28;20056;-50
2024/04/02 08:15:26;;;;;;;10.37;1.70;;;11.00;99.90;;;;;;5051577;28;20029;-49
2024/04/02 08:17:52;;;;;;;13.23;1.80;;;11.00;99.90;;;;;;5050215;28;20478;-49
2024/04/02 08:20:18;;;;;;;6.40;1.30;;;11.00;99.90;;;;;;5051567;28;20044;-49
2024/04/02 08:22:43;;;;;;;8.93;2.20;;;11.10;99.90;;;;;;5051716;28;20021;-50
2024/04/02 08:25:10;;;;;;;6.67;1.50;;;11.10;99.90;;;;;;5051698;28;20486;-49
2024/04/02 08:27:36;;;;;;;9.03;1.30;;;11.10;99.90;;;;;;5051409;28;20033;-51
2024/04/02 08:30:05;;;;;;;8.23;2.07;;;11.10;99.90;;;;;;5051498;28;20484;-51
2024/04/02 08:32:31;;;;;;;6.30;1.35;;;11.20;99.90;;;;;;5051647;28;20068;-52
2024/04/02 08:34:57;;;;;;;6.63;1.20;;;11.20;99.90;;;;;;5051552;28;20037;-52
2024/04/02 08:37:22;;;;;;;5.17;1.23;;;11.10;99.90;;;;;;5051310;28;20029;-50
2024/04/02 08:39:48;;;;;;;9.83;1.67;;;11.20;99.90;;;;;;5051896;28;20032;-53
2024/04/02 08:42:14;;;;;;;9.57;1.60;;;11.20;99.90;;;;;;5051491;28;20059;-53
2024/04/02 08:44:41;;;;;;;9.63;1.70;;;11.20;99.90;;;;;;5051413;28;20032;-51
2024/04/02 08:47:08;;;;;;;8.60;1.57;;;11.20;99.90;;;;;;5051319;28;20041;-54
2024/04/02 08:49:33;;;;;;;10.27;1.77;;;11.20;99.90;;;;;;5051477;28;20211;-49
2024/04/02 08:52:00;;;;;;;8.17;1.47;;;11.20;99.90;;;;;;5051494;28;20075;-52
2024/04/02 08:54:28;;;;;;;9.50;1.30;;;11.20;99.90;;;;;;5051360;28;20068;-49
2024/04/02 08:56:54;;;;;;;10.90;1.50;;;11.30;99.90;;;;;;5051080;28;20095;-48
2024/04/02 08:59:21;;;;;;;6.30;1.80;;;11.30;99.90;;;;;;5051248;28;20395;-52
2024/04/02 09:01:47;;;;;;;9.40;1.80;;;11.20;99.90;;;;;;5051281;28;20082;-50
2024/04/02 09:04:13;;;;;;;9.10;1.30;;;11.30;99.90;;;;;;5053333;28;20037;-52
2024/04/02 09:06:39;;;;;;;7.63;1.30;;;11.30;99.90;;;;;;5054918;28;20041;-50
2024/04/02 09:09:07;;;;;;;11.77;1.60;;;11.30;99.90;;;;;;5055079;28;20036;-53
2024/04/02 09:11:34;;;;;;;7.85;1.35;;;11.30;99.90;;;;;;5053703;28;20041;-49
2024/04/02 09:14:02;;;;;;;4.83;1.70;;;11.40;99.90;;;;;;5054934;28;20500;-51
2024/04/02 09:16:32;;;;;;;6.00;1.48;;;11.40;99.90;;;;;;5054759;28;20059;-53
2024/04/02 09:18:58;;;;;;;;;;;11.40;99.90;;;;;;5055421;28;20043;-51
2024/04/02 09:21:25;;;;;;;8.57;1.00;;;11.40;99.90;;;;;;5054732;28;19915;-52
2024/04/02 09:23:50;;;;;;;8.57;1.10;;;11.40;99.90;;;;;;5054790;28;20080;-52
2024/04/02 09:26:16;;;;;;;5.57;0.90;;;11.50;99.90;;;;;;5054857;28;20457;-51
2024/04/02 09:28:42;;;;;;;8.00;1.30;;;11.60;99.90;;;;;;5054650;28;20025;-53
2024/04/02 09:31:07;;;;;;;7.83;1.47;;;11.60;99.90;;;;;;5054585;28;20021;-52
2024/04/02 09:33:36;;;;;;;4.03;1.00;;;11.70;99.90;;;;;;5054541;28;20074;-49
2024/04/02 09:36:06;;;;;;;6.15;1.00;;;11.70;99.90;;;;;;5054397;28;20037;-51
2024/04/02 09:38:36;;;;;;;7.90;1.17;;;11.70;99.90;;;;;;5054376;28;20115;-47
2024/04/02 09:41:02;;;;;;;6.90;1.20;;;11.70;99.90;;;;;;5054631;28;20071;-49
2024/04/02 09:43:33;;;;;;;7.33;1.10;;;11.80;99.90;;;;;;5054345;28;20035;-51
2024/04/02 09:46:00;;;;;;;7.33;1.47;;;11.80;99.90;;;;;;5054070;28;20421;-52
2024/04/02 09:48:29;;;;;;;6.47;1.00;;;11.90;99.90;;;;;;5054250;28;20559;-52
2024/04/02 09:50:55;;;;;;;9.50;1.48;;;12.10;99.90;;;;;;5054128;28;20037;-50
2024/04/02 09:53:22;;;;;;;6.50;1.30;;;12.30;99.90;;;;;;5054133;28;20492;-51
2024/04/02 09:55:48;;;;;;;4.10;0.90;;;12.40;99.90;;;;;;5053875;28;20549;-48
2024/04/02 09:58:15;;;;;;;7.27;1.20;;;12.30;99.90;;;;;;5053972;28;20120;-52
2024/04/02 10:00:46;;;;;;;5.90;1.00;;;12.30;99.90;;;;;;5054076;28;20024;-52
2024/04/02 10:03:13;;;;;;;6.87;1.00;;;12.30;99.90;;;;;;5054036;28;20035;-52
2024/04/02 10:05:39;;;;;;;4.13;1.07;;;12.20;99.90;;;;;;5054028;28;20037;-49
2024/04/02 10:08:07;;;;;;;4.20;0.80;;;12.20;99.90;;;;;;5053986;28;20040;-48
2024/04/02 10:10:40;;;;;;;4.83;0.93;;;12.00;99.90;;;;;;5053812;28;20035;-52
2024/04/02 10:13:06;;;;;;;7.00;1.73;;;11.90;99.90;;;;;;5054051;28;20381;-50
2024/04/02 10:15:33;;;;;;;4.90;1.00;;;11.90;99.90;;;;;;5053626;28;20029;-53
2024/04/02 10:18:02;;;;;;;5.80;1.20;;;11.80;99.90;;;;;;5053515;28;20036;-53
2024/04/02 10:20:30;;;;;;;;;;;11.80;99.90;;;;;;5054488;28;20029;-52
2024/04/02 10:22:57;;;;;;;7.37;1.27;;;11.80;99.90;;;;;;5054034;28;20307;-52
2024/04/02 10:25:24;;;;;;;4.60;1.27;;;11.80;99.90;;;;;;5053623;28;20036;-53
2024/04/02 10:27:52;;;;;;;8.25;1.58;;;12.30;99.90;;;;;;5053423;28;20111;-51
2024/04/02 10:30:22;;;;;;;6.15;1.33;;;13.30;99.90;;;;;;5053375;28;20131;-50
2024/04/02 10:32:52;;;;;;;6.65;1.75;;;14.90;99.90;;;;;;5053436;28;20029;-52
2024/04/02 10:35:23;;;;;;;8.30;1.30;;;15.80;99.90;;;;;;5053234;28;20482;-51
2024/04/02 10:37:53;;;;;;;7.20;1.77;;;15.90;99.90;;;;;;5053272;28;20029;-52
2024/04/02 10:40:19;;;;;;;8.43;1.42;;;15.90;99.90;;;;;;5053340;28;20104;-51
2024/04/02 10:42:47;;;;;;;6.70;1.08;;;15.70;99.90;;;;;;5053294;28;20174;-52
2024/04/02 10:45:14;;;;;;;4.95;1.23;;;15.40;99.90;;;;;;5053199;28;20037;-51
2024/04/02 10:47:51;;;;;;;7.82;1.70;;;15.20;99.90;;;;;;5052978;28;20033;-51
2024/04/02 10:50:18;;;;;;;6.85;1.30;;;15.30;99.90;;;;;;5053043;28;20025;-53
2024/04/02 10:52:44;;;;;;;4.30;1.20;;;15.40;99.90;;;;;;5053095;28;20529;-52
2024/04/02 10:55:10;;;;;;;4.95;1.13;;;15.20;99.90;;;;;;5053116;28;20112;-50
2024/04/02 10:57:37;;;;;;;4.70;1.08;;;15.10;99.90;;;;;;5052572;28;20039;-53
2024/04/02 11:00:05;;;;;;;9.77;1.25;;;15.00;99.90;;;;;;5052773;28;20044;-53
2024/04/02 11:02:32;;;;;;;5.45;1.15;;;15.10;99.90;;;;;;5052939;28;20104;-49
2024/04/02 11:04:58;;;;;;;4.03;1.05;;;15.20;99.90;;;;;;5052867;28;20033;-51
2024/04/02 11:07:28;;;;;;;5.28;0.95;;;15.30;99.90;;;;;;5052530;28;20064;-48
2024/04/02 11:09:55;;;;;;;5.35;1.00;;;15.20;99.90;;;;;;5052625;28;21757;-51
2024/04/02 11:12:21;;;;;;;8.05;1.23;;;14.70;99.90;;;;;;5052605;28;20029;-52
2024/04/02 11:14:52;;;;;;;6.38;1.40;;;14.50;99.90;;;;;;5052690;28;20036;-52
2024/04/02 11:17:18;;;;;;;6.95;1.10;;;14.20;99.90;;;;;;5052245;28;20510;-51
2024/04/02 11:19:44;;;;;;;5.80;1.20;;;13.90;99.90;;;;;;5052394;28;20029;-52
2024/04/02 11:24:58;;;;;;;6.93;1.45;;;13.60;99.90;;;;;;5052481;28;20033;-52
2024/04/02 11:27:25;;;;;;;4.60;1.10;;;13.40;99.90;;;;;;5051887;28;20044;-52
2024/04/02 11:29:51;;;;;;;5.70;1.10;;;13.20;99.90;;;;;;5052250;28;20037;-51
2024/04/02 11:32:18;;;;;;;8.48;1.70;;;13.00;99.90;;;;;;5052436;28;20458;-52
2024/04/02 11:34:43;;;;;;;8.43;1.33;;;12.80;99.90;;;;;;5052294;28;20489;-50
2024/04/02 11:37:09;;;;;;;5.15;1.35;;;12.50;99.90;;;;;;5051919;28;20033;-53
2024/04/02 11:39:35;;;;;;;5.90;1.30;;;12.40;99.90;;;;;;5052161;28;20079;-53
2024/04/02 11:42:01;;;;;;;8.70;1.85;;;12.60;99.90;;;;;;5052335;28;20048;-52
2024/04/02 11:44:26;;;;;;;5.30;1.23;;;12.70;99.90;;;;;;5052113;28;20470;-53
2024/04/02 11:46:52;;;;;;;9.90;1.93;;;12.70;99.90;;;;;;5051853;28;20119;-48
2024/04/02 11:49:17;;;;;;;4.33;0.90;;;12.50;99.90;;;;;;5052107;28;20036;-49
2024/04/02 11:51:44;;;;;;;7.03;1.20;;;12.30;99.90;;;;;;5051963;28;20473;-52
2024/04/02 11:54:10;;;;;;;7.90;1.20;;;12.20;99.90;;;;;;5052059;28;20032;-53
2024/04/02 12:02:04;;;;;;;5.67;1.17;;;12.00;99.90;;;;;;5051878;28;20052;-53
2024/04/02 12:04:30;;;;;;;9.93;2.43;;;11.80;99.90;;;;;;5051924;28;20441;-52
2024/04/02 12:06:56;;;;;;;5.97;1.70;;;11.80;99.90;;;;;;5051628;28;20054;-50
2024/04/02 12:09:22;;;;;;;5.93;1.70;;;11.70;99.90;;;;;;5051853;28;20033;-52
2024/04/02 12:11:48;;;;;;;8.73;1.90;;;11.80;99.90;;;;;;5051712;28;20502;-52
2024/04/02 12:14:13;;;;;;;5.47;1.00;;;11.90;99.90;;;;;;5051813;28;20029;-52
2024/04/02 12:16:39;;;;;;;5.17;0.97;;;12.00;99.90;;;;;;5051326;28;20029;-53
2024/04/02 12:19:06;;;;;;;5.53;1.13;;;12.00;99.90;;;;;;5051702;28;20531;-52
2024/04/02 12:21:31;;;;;;;6.90;1.27;;;11.90;99.90;;;;;;5051761;28;20374;-51
2024/04/02 12:23:57;;;;;;;5.97;1.00;;;11.90;99.90;;;;;;5051674;28;20028;-53
2024/04/02 12:26:22;;;;;;;5.17;0.90;;;11.80;99.90;;;;;;5051462;28;20049;-53
2024/04/02 12:28:48;;;;;;;8.10;1.27;;;11.90;99.90;;;;;;5051630;28;20068;-53
2024/04/02 12:31:13;;;;;;;5.37;1.00;;;11.80;99.90;;;;;;5051549;28;20029;-53
2024/04/02 12:33:39;;;;;;;7.00;1.10;;;11.60;99.90;;;;;;5051556;28;20024;-54
2024/04/02 12:36:06;;;;;;;5.37;1.17;;;11.50;99.90;;;;;;5051602;28;20033;-52
2024/04/02 12:38:32;;;;;;;5.60;1.40;;;11.30;99.90;;;;;;5052523;28;20388;-50
2024/04/02 12:41:01;;;;;;;8.83;1.77;;;11.20;99.90;;;;;;5054346;28;20029;-53
2024/04/02 12:43:27;;;;;;;6.40;1.63;;;11.00;99.90;;;;;;5055649;28;20032;-54
2024/04/02 12:45:52;;;;;;;8.30;1.50;;;10.90;99.90;;;;;;5055414;28;20033;-49
2024/04/02 12:48:18;;;;;;;6.90;1.70;;;10.80;99.90;;;;;;5055835;28;20029;-50
2024/04/02 12:50:53;;;;;;;6.30;1.50;;;10.80;99.90;;;;;;5055545;28;20137;-53
2024/04/02 12:53:22;;;;;;;8.60;2.23;;;10.80;99.90;;;;;;5055871;28;20036;-50
2024/04/02 12:55:48;;;;;;;6.60;1.70;;;10.80;99.90;;;;;;5055345;28;20474;-50